createdAt,value
2018-12-07T00:00:18.372Z,99916.23
2018-12-07T00:02:46.733Z,99921.30
2018-12-07T00:05:16.221Z,99915.23
2018-12-07T00:07:44.616Z,99908.87
2018-12-07T00:10:13.049Z,99903.33
2018-12-07T00:12:43.294Z,99897.47
2018-12-07T00:15:11.828Z,99888.72
2018-12-07T00:17:40.492Z,99890.61
2018-12-07T00:20:09.071Z,99883.19
2018-12-07T00:22:37.823Z,99880.55
2018-12-07T00:25:06.249Z,99880.05
2018-12-07T00:27:34.593Z,99878.70
2018-12-07T00:30:02.961Z,99872.30
2018-12-07T00:32:31.352Z,99867.52
2018-12-07T00:34:59.781Z,99861.70
2018-12-07T00:37:28.189Z,99856.40
2018-12-07T00:39:56.515Z,99856.40
2018-12-07T00:42:24.950Z,99862.84
2018-12-07T00:44:54.409Z,99863.37
2018-12-07T00:47:22.791Z,99858.59
2018-12-07T00:49:51.498Z,99856.24
2018-12-07T00:52:20.596Z,99853.60
2018-12-07T00:54:48.936Z,99851.98
2018-12-07T00:57:17.306Z,99853.08
2018-12-07T00:59:45.674Z,99861.09
2018-12-07T01:02:15.004Z,99866.17
2018-12-07T01:04:45.232Z,99862.19
2018-12-07T01:07:19.118Z,99869.67
2018-12-07T01:09:49.055Z,99864.36
2018-12-07T01:12:20.009Z,99868.38
2018-12-07T01:14:49.652Z,99867.05
2018-12-07T01:17:19.898Z,99868.13
2018-12-07T01:19:48.207Z,99873.48
2018-12-07T01:22:16.659Z,99869.23
2018-12-07T01:24:45.192Z,99867.91
2018-12-07T01:27:13.775Z,99868.45
2018-12-07T01:29:42.140Z,99867.66
2018-12-07T01:32:10.576Z,99861.53
2018-12-07T01:34:39.069Z,99856.20
2018-12-07T01:37:07.448Z,99858.87
2018-12-07T01:39:35.755Z,99843.66
2018-12-07T01:42:04.227Z,99844.45
2018-12-07T01:44:32.602Z,99841.25
2018-12-07T01:47:01.053Z,99835.12
2018-12-07T01:49:29.615Z,99830.03
2018-12-07T01:51:58.063Z,99824.95
2018-12-07T01:54:26.411Z,99808.67
2018-12-07T01:56:54.865Z,99801.47
2018-12-07T01:59:23.274Z,99808.41
2018-12-07T02:01:51.599Z,99805.21
2018-12-07T02:04:20.029Z,99808.13
2018-12-07T02:06:49.105Z,99804.67
2018-12-07T02:09:19.448Z,99808.95
2018-12-07T02:11:47.999Z,99798.55
2018-12-07T02:14:16.296Z,99795.33
2018-12-07T02:16:44.701Z,99790.00
2018-12-07T02:19:13.028Z,99788.92
2018-12-07T02:21:41.462Z,99792.14
2018-12-07T02:24:09.836Z,99790.55
2018-12-07T02:26:38.181Z,99776.19
2018-12-07T02:29:06.650Z,99779.90
2018-12-07T02:31:35.132Z,99768.98
2018-12-07T02:34:04.997Z,99760.20
2018-12-07T02:36:33.413Z,99762.06
2018-12-07T02:39:01.852Z,99759.14
2018-12-07T02:41:30.346Z,99758.88
2018-12-07T02:43:58.728Z,99748.47
2018-12-07T02:46:27.089Z,99737.02
2018-12-07T02:48:55.471Z,99733.27
2018-12-07T02:51:23.802Z,99735.94
2018-12-07T02:53:52.139Z,99726.87
2018-12-07T02:56:20.577Z,99726.07
2018-12-07T02:58:48.888Z,99720.48
2018-12-07T03:01:17.309Z,99721.53
2018-12-07T03:03:45.618Z,99730.59
2018-12-07T03:06:14.039Z,99722.60
2018-12-07T03:08:42.413Z,99716.73
2018-12-07T03:11:10.712Z,99710.61
2018-12-07T03:13:39.072Z,99705.50
2018-12-07T03:16:07.434Z,99706.84
2018-12-07T03:18:36.159Z,99710.05
2018-12-07T03:21:04.494Z,99706.31
2018-12-07T03:23:32.868Z,99703.89
2018-12-07T03:26:01.373Z,99699.63
2018-12-07T03:28:30.112Z,99701.50
2018-12-07T03:30:59.058Z,99695.36
2018-12-07T03:33:27.690Z,99696.70
2018-12-07T03:35:56.277Z,99691.35
2018-12-07T03:38:24.808Z,99688.63
2018-12-07T03:40:53.186Z,99682.52
2018-12-07T03:43:21.541Z,99683.56
2018-12-07T03:45:49.938Z,99676.91
2018-12-07T03:48:18.320Z,99670.95
2018-12-07T03:50:46.748Z,99666.59
2018-12-07T03:53:15.142Z,99664.44
2018-12-07T03:55:43.490Z,99659.64
2018-12-07T03:58:11.817Z,99665.02
2018-12-07T04:00:40.210Z,99652.95
2018-12-07T04:03:08.507Z,99651.28
2018-12-07T04:05:37.034Z,99648.64
2018-12-07T04:08:05.636Z,99642.73
2018-12-07T04:10:34.199Z,99644.88
2018-12-07T04:13:02.583Z,99640.55
2018-12-07T04:15:31.005Z,99639.21
2018-12-07T04:17:59.540Z,99632.82
2018-12-07T04:20:27.872Z,99636.08
2018-12-07T04:22:56.213Z,99631.02
2018-12-07T04:25:24.580Z,99633.92
2018-12-07T04:27:53.004Z,99624.73
2018-12-07T04:30:23.500Z,99627.39
2018-12-07T04:32:51.937Z,99630.63
2018-12-07T04:35:20.561Z,99631.17
2018-12-07T04:37:49.174Z,99633.27
2018-12-07T04:40:17.572Z,99627.15
2018-12-07T04:42:46.106Z,99627.92
2018-12-07T04:45:14.689Z,99617.55
2018-12-07T04:47:43.223Z,99617.27
2018-12-07T04:50:11.632Z,99610.59
2018-12-07T04:52:39.947Z,99608.70
2018-12-07T04:55:08.372Z,99604.63
2018-12-07T04:57:36.725Z,99602.73
2018-12-07T05:00:06.737Z,99607.80
2018-12-07T05:02:36.202Z,99600.03
2018-12-07T05:05:05.377Z,99596.05
2018-12-07T05:07:33.702Z,99593.97
2018-12-07T05:10:02.092Z,99592.08
2018-12-07T05:12:30.475Z,99586.47
2018-12-07T05:14:59.094Z,99586.44
2018-12-07T05:17:27.501Z,99577.91
2018-12-07T05:19:55.947Z,99572.24
2018-12-07T05:22:24.273Z,99573.02
2018-12-07T05:24:52.606Z,99574.57
2018-12-07T05:27:20.947Z,99569.80
2018-12-07T05:29:50.285Z,99570.53
2018-12-07T05:32:18.619Z,99579.05
2018-12-07T05:34:47.245Z,99577.63
2018-12-07T05:37:15.595Z,99574.11
2018-12-07T05:39:44.028Z,99569.86
2018-12-07T05:42:12.316Z,99571.93
2018-12-07T05:44:40.656Z,99571.27
2018-12-07T05:47:09.009Z,99570.17
2018-12-07T05:49:37.576Z,99565.95
2018-12-07T05:52:06.058Z,99569.52
2018-12-07T05:54:34.397Z,99570.47
2018-12-07T05:57:02.824Z,99570.95
2018-12-07T05:59:31.189Z,99570.86
2018-12-07T06:01:59.541Z,99573.46
2018-12-07T06:04:28.051Z,99567.31
2018-12-07T06:06:58.278Z,99556.70
2018-12-07T06:09:26.792Z,99562.80
2018-12-07T06:11:55.248Z,99565.11
2018-12-07T06:14:23.798Z,99558.07
2018-12-07T06:16:52.140Z,99566.46
2018-12-07T06:19:20.643Z,99562.59
2018-12-07T06:21:48.980Z,99566.58
2018-12-07T06:24:17.553Z,99563.78
2018-12-07T06:26:46.035Z,99567.52
2018-12-07T06:29:14.450Z,99563.31
2018-12-07T06:31:42.793Z,99558.45
2018-12-07T06:34:11.179Z,99564.55
2018-12-07T06:36:39.518Z,99559.14
2018-12-07T06:39:07.882Z,99557.77
2018-12-07T06:41:36.259Z,99556.34
2018-12-07T06:44:04.607Z,99561.09
2018-12-07T06:46:33.018Z,99551.91
2018-12-07T06:49:09.040Z,99550.81
2018-12-07T06:51:37.508Z,99552.28
2018-12-07T06:54:05.946Z,99551.73
2018-12-07T06:56:34.484Z,99548.48
2018-12-07T06:59:03.057Z,99547.14
2018-12-07T07:01:31.530Z,99540.31
2018-12-07T07:04:00.064Z,99536.66
2018-12-07T07:06:28.556Z,99536.42
2018-12-07T07:08:56.938Z,99529.73
2018-12-07T07:11:25.321Z,99533.94
2018-12-07T07:13:53.677Z,99528.29
2018-12-07T07:16:23.248Z,99529.63
2018-12-07T07:18:51.785Z,99529.13
2018-12-07T07:21:20.160Z,99525.75
2018-12-07T07:23:48.545Z,99516.92
2018-12-07T07:26:17.137Z,99516.14
2018-12-07T07:28:45.472Z,99517.71
2018-12-07T07:31:14.204Z,99520.02
2018-12-07T07:33:42.606Z,99513.58
2018-12-07T07:36:11.053Z,99511.13
2018-12-07T07:38:39.469Z,99510.25
2018-12-07T07:41:07.912Z,99510.25
2018-12-07T07:43:36.241Z,99508.47
2018-12-07T07:46:04.806Z,99511.44
2018-12-07T07:48:33.800Z,99506.34
2018-12-07T07:51:02.363Z,99507.68
2018-12-07T07:53:31.800Z,99503.34
2018-12-07T07:56:00.163Z,99510.20
2018-12-07T07:58:28.742Z,99500.66
2018-12-07T08:00:57.103Z,99503.89
2018-12-07T08:03:25.746Z,99496.30
2018-12-07T08:05:54.208Z,99492.23
2018-12-07T08:08:22.649Z,99493.35
2018-12-07T08:10:51.033Z,99498.48
2018-12-07T08:13:20.396Z,99486.89
2018-12-07T08:15:48.911Z,99487.42
2018-12-07T08:18:17.273Z,99485.61
2018-12-07T08:20:45.671Z,99480.98
2018-12-07T08:23:14.807Z,99481.82
2018-12-07T08:25:43.553Z,99478.23
2018-12-07T08:28:11.904Z,99476.14
2018-12-07T08:30:40.359Z,99475.27
2018-12-07T08:33:08.749Z,99475.78
2018-12-07T08:35:37.074Z,99479.58
2018-12-07T08:38:05.611Z,99481.95
2018-12-07T08:40:34.304Z,99469.56
2018-12-07T08:43:02.731Z,99475.11
2018-12-07T08:45:31.410Z,99462.06
2018-12-07T08:47:59.802Z,99465.54
2018-12-07T08:50:28.184Z,99465.22
2018-12-07T08:52:56.528Z,99465.14
2018-12-07T08:55:25.032Z,99473.80
2018-12-07T08:57:53.431Z,99464.27
2018-12-07T09:00:21.803Z,99465.72
2018-12-07T09:02:50.194Z,99464.43
2018-12-07T09:05:18.557Z,99455.83
2018-12-07T09:07:46.960Z,99461.80
2018-12-07T09:10:15.867Z,99455.27
2018-12-07T09:12:44.550Z,99450.17
2018-12-07T09:15:13.353Z,99445.23
2018-12-07T09:17:41.784Z,99445.23
2018-12-07T09:20:10.158Z,99435.17
2018-12-07T09:22:38.599Z,99438.56
2018-12-07T09:25:06.934Z,99435.69
2018-12-07T09:27:35.288Z,99437.70
2018-12-07T09:30:04.739Z,99429.91
2018-12-07T09:32:33.184Z,99425.88
2018-12-07T09:35:01.672Z,99415.25
2018-12-07T09:37:29.972Z,99414.89
2018-12-07T09:39:58.385Z,99412.61
2018-12-07T09:42:26.710Z,99415.35
2018-12-07T09:44:55.060Z,99405.69
2018-12-07T09:47:23.474Z,99400.03
2018-12-07T09:49:52.087Z,99397.41
2018-12-07T09:52:20.771Z,99400.68
2018-12-07T09:54:49.219Z,99389.25
2018-12-07T09:57:17.657Z,99387.31
2018-12-07T09:59:46.016Z,99384.98
2018-12-07T10:02:14.463Z,99373.75
2018-12-07T10:04:42.853Z,99379.38
2018-12-07T10:07:11.319Z,99378.10
2018-12-07T10:09:39.659Z,99378.95
2018-12-07T10:12:08.079Z,99364.55
2018-12-07T10:14:36.439Z,99365.33
2018-12-07T10:17:04.797Z,99357.95
2018-12-07T10:19:33.162Z,99349.61
2018-12-07T10:22:01.724Z,99353.99
2018-12-07T10:24:30.344Z,99353.73
2018-12-07T10:27:02.551Z,99347.52
2018-12-07T10:29:30.879Z,99335.02
2018-12-07T10:31:59.241Z,99335.68
2018-12-07T10:34:27.715Z,99333.38
2018-12-07T10:36:56.223Z,99321.66
2018-12-07T10:39:24.663Z,99321.37
2018-12-07T10:41:53.029Z,99306.11
2018-12-07T10:44:21.362Z,99303.11
2018-12-07T10:46:49.847Z,99296.78
2018-12-07T10:49:18.175Z,99293.28
2018-12-07T10:51:46.533Z,99291.03
2018-12-07T10:54:15.189Z,99281.89
2018-12-07T10:56:43.977Z,99283.34
2018-12-07T10:59:12.337Z,99276.16
2018-12-07T11:01:46.384Z,99272.14
2018-12-07T11:04:20.429Z,99274.20
2018-12-07T11:07:01.216Z,99262.13
2018-12-07T11:09:31.560Z,99258.86
2018-12-07T11:12:06.675Z,99245.44
2018-12-07T11:14:40.862Z,99238.84
2018-12-07T11:17:14.923Z,99248.70
2018-12-07T11:19:49.001Z,99237.67
2018-12-07T11:22:22.939Z,99239.54
2018-12-07T11:24:56.878Z,99239.02
2018-12-07T11:27:31.119Z,99230.97
2018-12-07T11:36:47.551Z,99218.30
2018-12-07T11:39:15.887Z,99213.72
2018-12-07T11:41:44.258Z,99203.02
2018-12-07T11:44:12.631Z,99195.82
2018-12-07T11:46:41.013Z,99192.53
2018-12-07T11:49:09.428Z,99200.88
2018-12-07T11:51:37.753Z,99197.70
2018-12-07T11:54:06.123Z,99180.70
2018-12-07T11:56:34.531Z,99186.00
2018-12-07T11:59:02.871Z,99174.73
2018-12-07T12:01:31.197Z,99171.04
2018-12-07T12:04:00.252Z,99164.74
2018-12-07T12:06:28.826Z,99176.34
2018-12-07T12:08:57.152Z,99167.12
2018-12-07T12:11:25.485Z,99169.53
2018-12-07T12:13:53.843Z,99166.41
2018-12-07T12:16:22.192Z,99157.91
2018-12-07T12:18:50.560Z,99154.73
2018-12-07T12:21:18.939Z,99156.91
2018-12-07T12:23:53.397Z,99146.39
2018-12-07T12:26:17.595Z,99147.64
2018-12-07T12:28:46.024Z,99139.78
2018-12-07T12:31:14.422Z,99143.00
2018-12-07T12:33:42.793Z,99139.55
2018-12-07T12:36:16.960Z,99129.35
2018-12-07T12:38:41.448Z,99136.77
2018-12-07T12:41:10.291Z,99126.53
2018-12-07T12:43:38.617Z,99127.62
2018-12-07T12:46:07.034Z,99124.57
2018-12-07T12:48:35.379Z,99123.95
2018-12-07T12:51:03.726Z,99118.15
2018-12-07T12:53:32.079Z,99110.52
2018-12-07T12:56:00.512Z,99111.02
2018-12-07T12:58:29.034Z,99100.95
2018-12-07T13:00:57.393Z,99094.20
2018-12-07T13:03:25.787Z,99095.67
2018-12-07T13:05:54.144Z,99091.37
2018-12-07T13:08:22.690Z,99086.47
2018-12-07T13:10:51.380Z,99080.27
2018-12-07T13:13:20.353Z,99075.05
2018-12-07T13:15:48.716Z,99076.89
2018-12-07T13:18:17.116Z,99076.66
2018-12-07T13:20:45.680Z,99072.93
2018-12-07T13:23:14.016Z,99067.47
2018-12-07T13:25:42.340Z,99061.23
2018-12-07T13:28:10.677Z,99051.63
2018-12-07T13:30:39.096Z,99045.33
2018-12-07T13:33:07.487Z,99040.98
2018-12-07T13:35:36.062Z,99035.91
2018-12-07T13:38:04.422Z,99032.57
2018-12-07T13:40:32.957Z,99033.13
2018-12-07T13:43:01.768Z,99027.10
2018-12-07T13:45:30.672Z,99021.03
2018-12-07T13:47:59.475Z,99020.68
2018-12-07T13:50:33.636Z,99023.23
2018-12-07T13:53:02.163Z,99017.91
2018-12-07T13:55:30.884Z,99018.52
2018-12-07T13:57:59.449Z,99025.41
2018-12-07T14:00:27.939Z,99019.03
2018-12-07T14:02:56.407Z,99013.00
2018-12-07T14:05:32.017Z,99009.41
2018-12-07T14:07:55.480Z,99004.54
2018-12-07T14:10:24.014Z,98996.83
2018-12-07T14:12:52.500Z,98992.45
2018-12-07T14:15:21.090Z,98985.95
2018-12-07T14:17:49.726Z,98979.05
2018-12-07T14:20:18.545Z,98972.16
2018-12-07T14:22:46.969Z,98971.36
2018-12-07T14:25:15.356Z,98964.80
2018-12-07T14:27:43.990Z,98945.77
2018-12-07T14:30:12.512Z,98942.41
2018-12-07T14:32:40.998Z,98932.75
2018-12-07T14:35:09.508Z,98928.41
2018-12-07T14:37:38.054Z,98925.61
2018-12-07T14:40:06.711Z,98918.42
2018-12-07T14:42:35.212Z,98914.83
2018-12-07T14:45:04.542Z,98910.94
2018-12-07T14:47:33.064Z,98909.87
2018-12-07T14:50:01.669Z,98902.06
2018-12-07T14:52:30.047Z,98910.09
2018-12-07T14:54:58.842Z,98899.64
2018-12-07T14:57:27.736Z,98889.16
2018-12-07T14:59:56.681Z,98881.98
2018-12-07T15:02:25.475Z,98873.95
2018-12-07T15:04:54.010Z,98864.21
2018-12-07T15:07:23.939Z,98858.00
2018-12-07T15:09:52.744Z,98861.60
2018-12-07T15:12:21.300Z,98852.05
2018-12-07T15:14:50.077Z,98848.28
2018-12-07T15:17:18.716Z,98841.02
2018-12-07T15:19:47.343Z,98835.10
2018-12-07T15:22:15.898Z,98830.19
2018-12-07T15:24:44.479Z,98824.32
2018-12-07T15:27:12.828Z,98820.53
2018-12-07T15:29:41.345Z,98812.83
2018-12-07T15:32:09.868Z,98807.95
2018-12-07T15:34:38.388Z,98809.77
2018-12-07T15:37:06.801Z,98810.45
2018-12-07T15:39:35.290Z,98808.47
2018-12-07T15:42:03.814Z,98803.70
2018-12-07T15:44:32.407Z,98808.28
2018-12-07T15:47:00.940Z,98805.16
2018-12-07T15:49:29.461Z,98804.94
2018-12-07T15:51:58.670Z,98797.91
2018-12-07T15:54:27.518Z,98796.02
2018-12-07T15:56:56.420Z,98787.20
2018-12-07T15:59:25.768Z,98784.22
2018-12-07T16:01:54.398Z,98780.28
2018-12-07T16:04:23.378Z,98777.89
2018-12-07T16:06:52.254Z,98762.79
2018-12-07T16:09:20.831Z,98761.38
2018-12-07T16:11:49.376Z,98739.66
2018-12-07T16:14:18.012Z,98736.73
2018-12-07T16:16:46.467Z,98728.45
2018-12-07T16:19:14.940Z,98721.98
2018-12-07T16:21:45.230Z,98716.92
2018-12-07T16:24:13.786Z,98710.45
2018-12-07T16:26:42.502Z,98701.77
2018-12-07T16:29:11.016Z,98698.16
2018-12-07T16:31:39.857Z,98695.27
2018-12-07T16:34:08.472Z,98694.41
2018-12-07T16:36:37.019Z,98686.78
2018-12-07T16:39:06.820Z,98683.06
2018-12-07T16:41:35.481Z,98679.05
2018-12-07T16:44:04.148Z,98682.67
2018-12-07T16:46:32.744Z,98667.25
2018-12-07T16:49:01.648Z,98659.22
2018-12-07T16:51:30.479Z,98652.73
2018-12-07T16:53:59.154Z,98650.36
2018-12-07T16:56:27.867Z,98648.63
2018-12-07T16:58:56.549Z,98655.34
2018-12-07T17:01:25.052Z,98653.77
2018-12-07T17:03:53.829Z,98645.72
2018-12-07T17:06:22.584Z,98642.16
2018-12-07T17:08:51.098Z,98645.41
2018-12-07T17:11:19.902Z,98639.17
2018-12-07T17:13:48.649Z,98639.09
2018-12-07T17:16:17.448Z,98636.49
2018-12-07T17:18:45.848Z,98630.27
2018-12-07T17:21:14.540Z,98629.34
2018-12-07T17:23:43.115Z,98626.88
2018-12-07T17:26:11.531Z,98620.80
2018-12-07T17:28:40.258Z,98617.80
2018-12-07T17:31:08.710Z,98613.28
2018-12-07T17:33:37.285Z,98605.45
2018-12-07T17:36:05.911Z,98605.05
2018-12-07T17:38:34.473Z,98600.70
2018-12-07T17:41:02.829Z,98608.33
2018-12-07T17:43:31.644Z,98605.87
2018-12-07T17:46:01.527Z,98614.53
2018-12-07T17:48:30.574Z,98615.09
2018-12-07T17:50:59.261Z,98612.16
2018-12-07T17:53:27.909Z,98622.08
2018-12-07T17:55:56.867Z,98631.88
2018-12-07T17:58:25.463Z,98628.72
2018-12-07T18:00:53.965Z,98611.66
2018-12-07T18:03:22.424Z,98604.50
2018-12-07T18:05:50.904Z,98597.44
2018-12-07T18:08:20.198Z,98610.14
2018-12-07T18:10:48.821Z,98596.95
2018-12-07T18:13:17.509Z,98598.30
2018-12-07T18:15:46.020Z,98587.11
2018-12-07T18:18:14.501Z,98584.18
2018-12-07T18:20:43.155Z,98573.97
2018-12-07T18:23:11.766Z,98579.72
2018-12-07T18:25:40.667Z,98576.78
2018-12-07T18:28:09.599Z,98584.73
2018-12-07T18:30:38.378Z,98575.15
2018-12-07T18:33:06.889Z,98572.55
2018-12-07T18:35:35.509Z,98572.62
2018-12-07T18:38:04.146Z,98576.23
2018-12-07T18:40:32.767Z,98582.92
2018-12-07T18:43:01.384Z,98583.25
2018-12-07T18:45:29.818Z,98581.28
2018-12-07T18:47:58.172Z,98587.78
2018-12-07T18:50:28.355Z,98583.77
2018-12-07T18:52:57.139Z,98578.27
2018-12-07T18:55:26.339Z,98580.09
2018-12-07T18:57:54.919Z,98582.77
2018-12-07T19:00:23.662Z,98574.74
2018-12-07T19:02:52.667Z,98570.40
2018-12-07T19:05:21.536Z,98562.78
2018-12-07T19:07:50.425Z,98557.69
2018-12-07T19:10:18.951Z,98557.28
2018-12-07T19:12:47.547Z,98562.19
2018-12-07T19:15:16.175Z,98557.92
2018-12-07T19:17:44.624Z,98549.89
2018-12-07T19:20:13.091Z,98545.48
2018-12-07T19:22:41.711Z,98537.45
2018-12-07T19:25:10.150Z,98539.64
2018-12-07T19:27:38.724Z,98537.30
2018-12-07T19:30:14.463Z,98539.97
2018-12-07T19:32:39.845Z,98525.94
2018-12-07T19:35:10.136Z,98538.67
2018-12-07T19:37:38.606Z,98529.75
2018-12-07T19:40:07.721Z,98517.95
2018-12-07T19:42:36.379Z,98518.12
2018-12-07T19:45:06.696Z,98508.84
2018-12-07T19:47:35.252Z,98514.59
2018-12-07T19:50:05.530Z,98508.84
2018-12-07T19:52:34.474Z,98506.70
2018-12-07T19:55:02.949Z,98506.34
2018-12-07T19:57:31.505Z,98504.71
2018-12-07T19:59:59.916Z,98502.59
2018-12-07T20:02:28.515Z,98508.25
2018-12-07T20:04:57.214Z,98508.17
2018-12-07T20:07:25.829Z,98507.47
2018-12-07T20:09:54.432Z,98497.92
2018-12-07T20:12:23.045Z,98487.23
2018-12-07T20:14:52.560Z,98490.39
2018-12-07T20:17:21.187Z,98483.14
2018-12-07T20:19:49.526Z,98493.06
2018-12-07T20:22:17.953Z,98493.38
2018-12-07T20:24:46.642Z,98498.81
2018-12-07T20:27:15.254Z,98485.09
2018-12-07T20:29:43.867Z,98471.73
2018-12-07T20:32:12.880Z,98466.59
2018-12-07T20:34:41.286Z,98460.77
2018-12-07T20:37:09.857Z,98457.69
2018-12-07T20:39:39.207Z,98451.63
2018-12-07T20:42:07.814Z,98447.23
2018-12-07T20:44:36.626Z,98436.66
2018-12-07T20:47:05.624Z,98429.34
2018-12-07T20:49:34.202Z,98436.23
2018-12-07T20:52:02.745Z,98427.06
2018-12-07T20:54:31.255Z,98426.17
2018-12-07T20:56:59.803Z,98425.94
2018-12-07T20:59:28.617Z,98417.05
2018-12-07T21:01:58.423Z,98405.31
2018-12-07T21:04:30.851Z,98400.65
2018-12-07T21:07:28.136Z,98402.63
2018-12-07T21:13:40.909Z,98404.77
2018-12-07T21:16:22.974Z,98407.30
2018-12-07T21:18:51.300Z,98402.91
2018-12-07T21:21:21.180Z,98399.53
2018-12-07T21:23:50.231Z,98405.53
2018-12-07T21:26:21.186Z,98401.70
2018-12-07T21:28:49.870Z,98399.25
2018-12-07T21:31:18.639Z,98405.75
2018-12-07T21:33:49.305Z,98400.17
2018-12-07T21:36:27.578Z,98403.17
2018-12-07T21:38:56.000Z,98400.09
2018-12-07T21:41:24.490Z,98391.88
2018-12-07T21:43:53.339Z,98389.53
2018-12-07T21:46:21.999Z,98383.98
2018-12-07T21:48:50.823Z,98384.86
2018-12-07T21:51:23.521Z,98384.48
2018-12-07T21:53:52.052Z,98384.48
2018-12-07T21:56:20.485Z,98378.08
2018-12-07T21:58:49.038Z,98380.73
2018-12-07T22:01:17.484Z,98381.98
2018-12-07T22:03:46.110Z,98373.05
2018-12-07T22:06:14.984Z,98379.00
2018-12-07T22:08:43.534Z,98388.63
2018-12-07T22:11:12.006Z,98376.92
2018-12-07T22:13:40.481Z,98389.77
2018-12-07T22:16:08.847Z,98376.27
2018-12-07T22:18:37.262Z,98371.05
2018-12-07T22:21:05.694Z,98363.78
2018-12-07T22:23:34.386Z,98380.13
2018-12-07T22:26:03.150Z,98370.73
2018-12-07T22:28:31.692Z,98372.70
2018-12-07T22:31:00.151Z,98365.85
2018-12-07T22:33:28.640Z,98357.33
2018-12-07T22:35:57.221Z,98361.91
2018-12-07T22:38:25.773Z,98360.47
2018-12-07T22:40:54.183Z,98355.01
2018-12-07T22:43:23.030Z,98369.98
2018-12-07T22:45:51.841Z,98363.43
2018-12-07T22:48:20.787Z,98372.20
2018-12-07T22:50:49.273Z,98356.70
2018-12-07T22:53:17.652Z,98366.88
2018-12-07T22:55:46.000Z,98377.40
2018-12-07T22:58:14.608Z,98380.66
2018-12-07T23:00:43.663Z,98370.52
2018-12-07T23:03:12.107Z,98376.63
2018-12-07T23:05:40.520Z,98381.00
2018-12-07T23:08:08.838Z,98383.22
2018-12-07T23:10:37.213Z,98377.09
2018-12-07T23:13:05.660Z,98388.59
2018-12-07T23:15:33.993Z,98374.42
2018-12-07T23:18:02.709Z,98374.92
2018-12-07T23:20:31.034Z,98376.46
2018-12-07T23:22:59.440Z,98383.58
2018-12-07T23:25:27.812Z,98388.39
2018-12-07T23:27:56.190Z,98374.92
2018-12-07T23:30:24.531Z,98388.35
2018-12-07T23:32:53.283Z,98388.59
2018-12-07T23:35:21.890Z,98383.03
2018-12-07T23:37:50.322Z,98401.95
2018-12-07T23:40:18.712Z,98397.58
2018-12-07T23:42:47.325Z,98390.45
2018-12-07T23:45:16.218Z,98393.14
2018-12-07T23:47:44.653Z,98405.88
2018-12-07T23:50:12.998Z,98395.92
2018-12-07T23:52:41.421Z,98384.41
2018-12-07T23:55:09.753Z,98381.38
2018-12-07T23:57:38.078Z,98390.77
